| Date | Time | Temp. (oF) | Dew Point (oF) | Rel. Hum. (%) | Press. (in.) | Wind Dir. | Wind Speed (mph) | Hourly Rainfall (in.) |
|
|---|---|---|---|---|---|---|---|---|---|
| 1 | 05/25 | 00:00 | 67 | 65 | 95 | 29.99 | SE | 1 | 0.00 |
| 2 | 05/24 | 23:00 | 68 | 65 | 93 | 29.97 | E | 2 | 0.00 |
| 3 | 05/24 | 22:00 | 70 | 64 | 84 | 29.98 | SSW | 4 | 0.00 |
| 4 | 05/24 | 21:00 | 72 | 62 | 73 | 29.95 | SW | 4 | 0.00 |
| 5 | 05/24 | 20:00 | 80 | 65 | 62 | 29.93 | NNE | 6 | 0.00 |
| 6 | 05/24 | 19:00 | 82 | 65 | 58 | 29.91 | SW | 3 | 0.00 |
| 7 | 05/24 | 18:00 | 83 | 64 | 54 | 29.91 | WSW | 3 | 0.00 |
| 8 | 05/24 | 17:00 | 84 | 65 | 54 | 29.92 | SW | 10 | 0.00 |
| 9 | 05/24 | 16:00 | 84 | 67 | 57 | 29.93 | SSW | 6 | 0.00 |
| 10 | 05/24 | 15:00 | 83 | 63 | 52 | 29.96 | SW | 4 | 0.00 |
| 11 | 05/24 | 14:00 | 83 | 64 | 54 | 29.98 | WNW | 8 | 0.00 |
| 12 | 05/24 | 13:00 | 81 | 65 | 60 | 30.00 | WSW | 2 | 0.00 |
| 13 | 05/24 | 12:00 | 81 | 66 | 62 | 30.00 | S | 6 | 0.00 |
| 14 | 05/24 | 11:00 | 79 | 67 | 68 | 30.02 | W | 7 | 0.00 |
| 15 | 05/24 | 10:00 | 75 | 67 | 78 | 30.02 | SSE | 5 | 0.00 |
| 16 | 05/24 | 09:00 | 72 | 66 | 83 | 30.03 | WSW | 2 | 0.00 |
| 17 | 05/24 | 08:00 | 69 | 66 | 91 | 30.04 | S | 2 | 0.00 |
| 18 | 05/24 | 07:00 | 67 | 65 | 94 | 30.03 | S | 3 | 0.00 |
| 19 | 05/24 | 06:00 | 67 | 64 | 93 | 30.03 | WNW | 3 | 0.00 |
| 20 | 05/24 | 05:00 | 67 | 64 | 93 | 30.00 | S | 2 | 0.00 |
| 21 | 05/24 | 04:00 | 68 | 64 | 90 | 30.01 | SW | 2 | 0.00 |
| 22 | 05/24 | 03:00 | 69 | 64 | 87 | 30.03 | SW | 3 | 0.00 |
| 23 | 05/24 | 02:00 | 70 | 65 | 86 | 30.04 | SSW | 5 | 0.00 |
| 24 | 05/24 | 01:00 | 70 | 64 | 83 | 30.05 | S | 5 | 0.00 |